• Join FlightAware (Why Join?)
  • Login
  • US Flag 
10:11PM EDT


 

Airport Tracker/Info


-or-


 

Live Flight TrackerFlight Track Log ✈ EJA922 ✈ 25-Aug-2013 ✈ KSAN - KMKC

Flight Track Log - Related Links

Times and Time Zones

All times are in EDT time to prevent confusion due to time zone crossing. See the EJA922 flight status page for this flight to view local times or setup timezone preferences in your user account.

Time Position Orientation Groundspeed Altitude Reporting Facility
EDT Latitude Longitude Course Direction KTS MPH feet Rate Location/Type
08:49PM 32.7411 -117.2222 64° Northeast 200 230 1,200  Level Los Angeles Center
08:50PM 32.7553 -117.2922 284° West 216 249 4,800 3,480 Climbing Los Angeles Center
08:51PM 32.7000 -117.3303 210° Southwest 251 289 8,400 2,940 Climbing Los Angeles Center
08:52PM 32.6561 -117.2603 127° Southeast 260 299 10,900 1,800 Climbing Los Angeles Center
08:53PM 32.6394 -117.1642 102° East 295 339 12,200 1,800 Climbing Los Angeles Center
08:55PM 33.0150 -116.4876 64° Northeast  Level Estimated
08:55PM 32.6231 -117.0550 100° East 328 377 14,700  Level Los Angeles Center
08:56PM 32.6522 -116.9739 67° East 343 395 16,300 2,040 Climbing Los Angeles Center
08:57PM 32.7639 -116.9225 21° North 371 427 19,000 1,980 Climbing Los Angeles Center
08:58PM 32.8664 -116.8975 12° North 372 428 20,500 1,500 Climbing Los Angeles Center
08:59PM 32.9983 -116.8639 12° North 389 448 22,200 1,500 Climbing Los Angeles Center
09:00PM 33.1106 -116.8353 12° North 400 460 23,600 1,320 Climbing Los Angeles Center
09:01PM 33.2219 -116.7933 17° North 415 478 25,000 1,200 Climbing Los Angeles Center
09:02PM 33.3300 -116.7269 27° Northeast 430 495 26,200 1,080 Climbing Los Angeles Center
09:03PM 33.4397 -116.6614 26° Northeast 438 504 27,300 1,080 Climbing Los Angeles Center
09:04PM 33.5483 -116.5842 31° Northeast 449 517 28,500 1,080 Climbing Los Angeles Center
09:05PM 33.6547 -116.4969 34° Northeast 459 528 29,600 1,020 Climbing Los Angeles Center
09:06PM 33.7572 -116.3983 39° Northeast 469 540 30,600 1,200 Climbing Los Angeles Center
09:07PM 33.8678 -116.2619 46° Northeast 476 548 32,100 1,200 Climbing Los Angeles Center
09:08PM 33.9244 -116.1206 64° Northeast 473 544 33,100 900 Climbing Los Angeles Center
09:09PM 33.9689 -115.9700 70° East 476 548 34,000 900 Climbing Los Angeles Center
09:10PM 34.0136 -115.8153 71° East 485 558 35,000 900 Climbing Los Angeles Center
09:11PM 34.0286 -115.6542 84° East 483 556 35,900 900 Climbing Los Angeles Center
09:12PM 34.0356 -115.4917 87° East 484 557 36,900 1,020 Climbing Los Angeles Center
09:13PM 34.0431 -115.3283 87° East 488 562 38,100 1,320 Climbing Los Angeles Center
09:14PM 34.0506 -115.1333 87° East 485 558 39,700 1,320 Climbing Los Angeles Center
09:15PM 34.0567 -114.9717 87° East 484 557 40,900 600 Climbing Los Angeles Center
09:16PM 34.0756 -114.8075 82° East 509 586 41,000  Climbing Los Angeles Center
09:17PM 34.1236 -114.6408 71° East 523 602 41,000  Level Los Angeles Center
09:18PM 34.1750 -114.4686 70° East 543 625 41,000  Level Los Angeles Center
09:19PM 34.2156 -114.3294 71° East 549 632 41,000  Level Los Angeles Center
09:20PM 34.2867 -114.0875 70° East 547 629 41,000  Level Los Angeles Center
09:21PM 34.3369 -113.9125 71° East 548 631 41,000  Level Los Angeles Center
09:22PM 34.3903 -113.7322 70° East 556 640 41,000  Level Los Angeles Center
09:23PM 34.4294 -113.5933 71° East 553 636 41,000  Level Los Angeles Center
09:25PM 34.4983 -113.3511 71° East 548 631 41,000  Level Albuquerque Center
09:26PM 34.5472 -113.1747 71° East 554 638 41,000  Level Albuquerque Center
09:27PM 34.5956 -113.0022 71° East 551 634 41,000  Level Albuquerque Center
09:28PM 34.6433 -112.8283 71° East 550 633 41,000  Level Albuquerque Center
09:29PM 34.7006 -112.6197 71° East 549 632 41,000  Level Albuquerque Center
09:30PM 34.7486 -112.4461 71° East 549 632 41,000  Level Albuquerque Center
09:31PM 34.7950 -112.2722 72° East 548 631 41,000  Level Albuquerque Center
09:32PM 34.8417 -112.0994 72° East 545 627 41,000  Level Albuquerque Center
09:33PM 34.8886 -111.9267 72° East 544 626 41,000  Level Albuquerque Center
09:34PM 34.9342 -111.7547 72° East 541 623 41,000  Level Albuquerque Center
09:35PM 34.9869 -111.5567 72° East 539 620 41,000  Level Albuquerque Center
09:36PM 35.0317 -111.3844 72° East 534 615 41,000  Level Albuquerque Center
09:37PM 35.0778 -111.2106 72° East 536 617 41,000  Level Albuquerque Center
09:38PM 35.1250 -111.0258 73° East 533 613 41,000  Level Albuquerque Center
09:39PM 35.1675 -110.8603 73° East 532 612 41,000  Level Albuquerque Center
09:40PM 35.2181 -110.6678 72° East 534 615 41,000  Level Albuquerque Center
09:41PM 35.2606 -110.5006 73° East 536 617 41,000  Level Albuquerque Center
09:42PM 35.3017 -110.3350 73° East 535 616 41,000  Level Albuquerque Center
09:43PM 35.3681 -110.1483 66° East 536 617 41,000  Level Albuquerque Center
09:44PM 35.4353 -109.9942 62° Northeast 536 617 41,000  Level Albuquerque Center
09:45PM 35.5117 -109.8133 63° Northeast 535 616 41,000  Level Albuquerque Center
09:46PM 35.5767 -109.6597 62° Northeast 533 613 41,000  Level Albuquerque Center
09:47PM 35.6358 -109.5025 65° Northeast 530 610 41,000  Level Albuquerque Center
09:48PM 35.6794 -109.3086 74° East 527 606 41,000  Level Albuquerque Center
09:49PM 35.7172 -109.1431 74° East 527 606 41,000  Level Albuquerque Center
09:50PM 35.7603 -108.9503 75° East 527 606 41,000  Level Albuquerque Center
09:51PM 35.7972 -108.7872 74° East 525 604 41,000  Level Albuquerque Center
09:52PM 35.8419 -108.5953 74° East 527 606 41,000  Level Albuquerque Center
09:53PM 35.8792 -108.4289 75° East 529 609 41,000  Level Albuquerque Center
09:54PM 35.9167 -108.2631 74° East 528 608 41,000  Level Albuquerque Center
09:55PM 35.9586 -108.0692 75° East 527 606 41,000  Level Albuquerque Center
09:56PM 35.9953 -107.9022 75° East 527 606 41,000  Level Albuquerque Center
09:57PM 36.0378 -107.7069 75° East 527 606 41,000  Level Albuquerque Center
09:58PM 36.0733 -107.5406 75° East 526 605 41,000  Level Albuquerque Center
09:59PM 36.1094 -107.3736 75° East 525 604 41,000  Level Albuquerque Center
10:00PM 36.1494 -107.1792 76° East 524 603 41,000  Level Albuquerque Center
10:01PM 36.1856 -107.0111 75° East 527 606 41,000  Level Albuquerque Center
10:02PM 36.2264 -106.8158 75° East 526 605 41,000  Level Albuquerque Center
10:03PM 36.2622 -106.6467 75° East 529 609 41,000  Level Albuquerque Center
10:04PM 36.2972 -106.4722 76° East 526 605 41,000  Level Albuquerque Center
10:05PM 36.3328 -106.2939 76° East 528 608 41,000  Level Albuquerque Center
10:06PM 36.3697 -106.1158 76° East 530 610 41,000  Level Albuquerque Center
10:08PM 36.4044 -105.9378 76° East 530 610 41,000  Level Albuquerque Center
10:09PM 36.4386 -105.7617 76° East 525 604 41,000  Level Albuquerque Center
10:10PM 36.4731 -105.5869 76° East 522 601 41,000  Level Albuquerque Center
10:11PM 36.5119 -105.3881 76° East 513 590 41,000  Level Albuquerque Center
10:12PM 36.5456 -105.2108 77° East 517 595 41,000  Level Albuquerque Center
10:13PM 36.5789 -105.0372 77° East 514 592 41,000  Level Albuquerque Center
10:14PM 36.6119 -104.8614 77° East 515 593 41,000  Level Albuquerque Center
10:15PM 36.6450 -104.6875 77° East 513 590 41,000  Level Albuquerque Center
10:16PM 36.6794 -104.5039 77° East 510 587 41,000  Level Albuquerque Center
10:17PM 36.7092 -104.3408 77° East 509 586 41,000  Level Albuquerque Center
10:18PM 36.7403 -104.1775 77° East 508 585 41,000  Level Albuquerque Center
10:19PM 36.7744 -103.9869 77° East 507 583 41,000  Level Albuquerque Center
10:20PM 36.8039 -103.8219 77° East 509 586 41,000  Level Albuquerque Center
10:21PM 36.8378 -103.6303 77° East 510 587 41,000  Level Albuquerque Center
10:22PM 36.8672 -103.4625 78° East 515 593 41,000  Level Albuquerque Center
10:23PM 36.8969 -103.2953 77° East 517 595 41,000  Level Albuquerque Center
10:24PM 36.9306 -103.1003 78° East 517 595 41,000  Level Albuquerque Center
10:25PM 36.9589 -102.9328 78° East 516 594 41,000  Level Albuquerque Center
10:26PM 36.9936 -102.7364 77° East 519 597 41,000  Level Albuquerque Center
10:27PM 37.0217 -102.5681 78° East 519 597 41,000  Level Albuquerque Center
10:28PM 37.0511 -102.3844 79° East 518 596 41,000  Level Albuquerque Center
10:29PM 37.0878 -102.2203 74° East 514 592 41,000  Level Albuquerque Center
10:30PM 37.1433 -102.0325 70° East 514 592 41,000  Level Albuquerque Center
10:31PM 37.1825 -101.8981 70° East 515 593 41,000  Level Kansas City Center
10:32PM 37.2356 -101.7089 71° East 515 593 41,000  Level Kansas City Center
10:33PM 37.2803 -101.5478 71° East 514 592 41,000  Level Kansas City Center
10:34PM 37.3253 -101.3878 70° East 511 588 41,000  Level Kansas City Center
10:35PM 37.3775 -101.2003 71° East 511 588 41,000  Level Kansas City Center
10:36PM 37.4208 -101.0397 71° East 511 588 41,000  Level Kansas City Center
10:37PM 37.4708 -100.8517 71° East 514 592 41,000  Level Kansas City Center
10:38PM 37.5161 -100.6914 70° East 518 596 41,000  Level Kansas City Center
10:39PM 37.5600 -100.5319 71° East 515 593 41,000  Level Kansas City Center
10:40PM 37.6106 -100.3422 71° East 512 589 41,000  Level Kansas City Center
10:41PM 37.6542 -100.1814 71° East 511 588 41,000  Level Kansas City Center
10:42PM 37.7039 -99.9914 72° East 511 588 41,000  Level Kansas City Center
10:43PM 37.7461 -99.8306 72° East 508 585 41,000  Level Kansas City Center
10:44PM 37.7961 -99.6408 72° East 509 586 41,000  Level Kansas City Center
10:45PM 37.8381 -99.4783 72° East 509 586 41,000  Level Kansas City Center
10:46PM 37.8769 -99.3239 72° East 510 587 41,000  Level Kansas City Center
10:47PM 37.9217 -99.1533 72° East 509 586 41,000  Level Kansas City Center
10:48PM 37.9647 -98.9811 72° East 512 589 41,000  Level Kansas City Center
10:49PM 38.0083 -98.8094 72° East 512 589 41,000  Level Kansas City Center
10:50PM 38.0611 -98.6025 72° East 512 589 41,000  Level Kansas City Center
10:51PM 38.1064 -98.4292 72° East 515 593 41,000  Level Kansas City Center
10:52PM 38.1489 -98.2569 73° East 510 587 41,000  Level Kansas City Center
10:53PM 38.1922 -98.0811 73° East 513 590 41,000  Level Kansas City Center
10:54PM 38.2336 -97.9069 73° East 509 586 41,000  Level Kansas City Center
10:55PM 38.2753 -97.7325 73° East 511 588 41,000  Level Kansas City Center
10:56PM 38.3169 -97.5592 73° East 509 586 41,000  Level Kansas City Center
10:57PM 38.3583 -97.3861 73° East 509 586 41,000 -240 Level Kansas City Center
10:58PM 38.3989 -97.2142 73° East 508 585 40,600 -840 Descending Kansas City Center
10:59PM 38.4389 -97.0422 73° East 504 580 39,400 -1,200 Descending Kansas City Center
11:00PM 38.4800 -96.8683 73° East 511 588 38,200 -1,260 Descending Kansas City Center
11:01PM 38.5225 -96.6808 74° East 504 580 36,900 -1,740 Descending Kansas City Center
11:02PM 38.5611 -96.5150 73° East 507 583 34,700 -2,400 Descending Kansas City Center
11:03PM 38.5997 -96.3433 74° East 523 602 32,100 -2,940 Descending Kansas City Center
11:04PM 38.6469 -96.1378 74° East 541 623 28,900 -3,000 Descending Kansas City Center
11:05PM 38.6858 -95.9625 74° East 538 619 26,200 -2,640 Descending Kansas City Center
11:06PM 38.7219 -95.7972 74° East 515 593 23,600 -2,640 Descending Kansas City Center
11:07PM 38.7636 -95.6142 74° East 485 558 20,800 -2,520 Descending Kansas City Center
11:09PM 38.7969 -95.4661 74° East 459 528 18,500 -2,460 Descending Kansas City Center
11:10PM 38.8725 -95.3244 56° Northeast 440 506 15,900 -2,520 Descending Kansas City Center
11:11PM 38.9458 -95.2208 48° Northeast 412 474 13,500 -2,160 Descending Kansas City Center
11:12PM 38.9831 -95.1064 67° East 369 425 11,500 -1,680 Descending Kansas City Center
11:13PM 39.0161 -94.9869 70° East 313 360 10,200 -1,680 Descending Kansas City Center
11:14PM 39.0539 -94.9042 60° Northeast 286 329 8,200 -1,680 Descending Kansas City Center
11:15PM 39.1047 -94.8175 53° Northeast 272 313 6,800 -1,440 Descending Kansas City Center
11:16PM 39.1414 -94.7472 56° Northeast 252 290 5,300 -1,560 Descending Kansas City Center
11:17PM 39.1731 -94.6775 60° Northeast 238 274 3,700 -1,560 Descending Kansas City Center
11:18PM 39.1869 -94.6081 76° East 171 197 2,100 -1,200 Descending Kansas City Center
11:19PM 39.1617 -94.5819 141° Southeast 127 146 1,300 -600 Descending Kansas City Center
11:20PM 39.1289 -94.5936 195° South 123 142 1,000 -300 Descending Kansas City Center